Time;durP1;ratioP1;P1;durP2;ratioP2;P2;SDS_P1;SDS_P2;PMS_P1;PMS_P2;Temp;Humidity;BMP_temperature;BMP_pressure;BME280_temperature;BME280_humidity;BME280_pressure;Samples;Min_cycle;Max_cycle;Signal;HPM_P1;HPM_P2
2023/02/26 00:02:37;;;;;;;20.17;5.20;;;;;;;;;;10484555;28;20488;-77
2023/02/26 00:07:38;;;;;;;20.08;4.60;;;;;;;;;;10482543;28;20032;-73
2023/02/26 00:12:38;;;;;;;20.80;6.45;;;;;;;;;;10502190;28;20020;-81
2023/02/26 00:17:54;;;;;;;14.88;4.32;;;;;;;;;;10489325;28;20077;-79
2023/02/26 00:22:55;;;;;;;25.08;6.15;;;;;;;;;;10486384;28;20474;-77
2023/02/26 00:27:55;;;;;;;12.55;5.82;;;;;;;;;;10492715;28;20024;-73
2023/02/26 00:32:56;;;;;;;17.45;4.63;;;;;;;;;;10488570;28;20017;-76
2023/02/26 00:38:15;;;;;;;11.75;3.88;;;;;;;;;;10483092;28;20398;-79
2023/02/26 00:43:21;;;;;;;14.07;4.82;;;;;;;;;;10491612;28;20048;-76
2023/02/26 00:48:24;;;;;;;14.88;4.20;;;;;;;;;;10485460;28;20091;-82
2023/02/26 00:53:34;;;;;;;14.50;3.42;;;;;;;;;;10482368;28;20108;-75
2023/02/26 00:58:35;;;;;;;14.05;4.30;;;;;;;;;;10481990;28;20519;-79
2023/02/26 01:03:36;;;;;;;17.83;4.25;;;;;;;;;;10523261;28;20020;-76
2023/02/26 01:08:43;;;;;;;23.40;4.87;;;;;;;;;;10488015;28;20470;-75
2023/02/26 01:13:44;;;;;;;20.77;4.30;;;;;;;;;;10459037;28;20285;-74
2023/02/26 01:18:47;;;;;;;16.35;4.13;;;;;;;;;;10481863;28;20029;-76
2023/02/26 01:23:50;;;;;;;14.10;3.53;;;;;;;;;;10490965;28;20406;-81
2023/02/26 01:28:50;;;;;;;21.77;4.47;;;;;;;;;;10455743;28;20033;-69
2023/02/26 01:33:54;;;;;;;8.70;5.00;;;;;;;;;;10490555;28;20701;-76
2023/02/26 01:39:01;;;;;;;25.67;4.00;;;;;;;;;;10490515;28;20016;-74
2023/02/26 01:44:05;;;;;;;10.67;4.17;;;;;;;;;;10489906;28;20056;-75
2023/02/26 01:49:11;;;;;;;18.58;4.47;;;;;;;;;;10491887;28;20024;-74
2023/02/26 01:54:28;;;;;;;12.25;4.05;;;;;;;;;;10502787;28;20024;-70
2023/02/26 01:59:29;;;;;;;17.40;4.10;;;;;;;;;;10503688;28;20603;-76
2023/02/26 02:04:30;;;;;;;16.85;4.85;;;;;;;;;;10491651;28;20042;-79
2023/02/26 02:09:30;;;;;;;11.65;3.45;;;;;;;;;;10494565;28;20028;-76
2023/02/26 02:14:37;;;;;;;8.13;3.93;;;;;;;;;;10470598;28;20024;-75
2023/02/26 02:19:56;;;;;;;12.15;3.65;;;;;;;;;;10496786;28;20028;-78
2023/02/26 02:24:56;;;;;;;16.67;3.67;;;;;;;;;;10450113;28;20112;-74
2023/02/26 02:30:29;;;;;;;17.27;3.55;;;;;;;;;;10492759;28;20024;-75
2023/02/26 02:35:39;;;;;;;16.25;3.80;;;;;;;;;;10443047;28;20033;-70
2023/02/26 02:40:42;;;;;;;11.73;3.38;;;;;;;;;;10467274;28;20078;-73
2023/02/26 02:45:46;;;;;;;13.95;3.88;;;;;;;;;;10486871;28;20078;-78
2023/02/26 02:50:51;;;;;;;14.32;3.92;;;;;;;;;;10444735;28;20155;-75
2023/02/26 02:55:57;;;;;;;9.32;3.55;;;;;;;;;;10477685;28;20024;-75
2023/02/26 03:01:00;;;;;;;9.77;3.55;;;;;;;;;;10485473;28;20047;-80
2023/02/26 03:06:02;;;;;;;22.30;4.43;;;;;;;;;;10489227;28;20016;-79
2023/02/26 03:11:02;;;;;;;15.77;4.25;;;;;;;;;;10485339;28;20085;-70
2023/02/26 03:16:19;;;;;;;10.48;2.72;;;;;;;;;;10495593;28;20020;-79
2023/02/26 03:21:22;;;;;;;27.58;4.22;;;;;;;;;;10526625;28;20029;-76
2023/02/26 03:26:26;;;;;;;17.63;4.03;;;;;;;;;;10485167;28;20207;-78
2023/02/26 03:31:32;;;;;;;14.65;3.97;;;;;;;;;;10483099;28;20028;-79
2023/02/26 03:36:45;;;;;;;24.60;3.90;;;;;;;;;;10491280;28;20077;-78
2023/02/26 03:41:53;;;;;;;10.95;3.28;;;;;;;;;;10498541;28;20082;-79
2023/02/26 03:46:57;;;;;;;13.40;2.80;;;;;;;;;;10494018;28;20632;-72
2023/02/26 03:51:59;;;;;;;14.07;3.90;;;;;;;;;;10484877;28;20036;-79
2023/02/26 03:56:59;;;;;;;19.02;3.40;;;;;;;;;;10487822;28;20012;-79
2023/02/26 04:02:02;;;;;;;12.40;2.90;;;;;;;;;;10486220;28;20090;-74
2023/02/26 04:07:02;;;;;;;12.00;3.35;;;;;;;;;;10482274;28;20021;-73
2023/02/26 04:12:02;;;;;;;21.43;3.90;;;;;;;;;;10487263;28;20017;-75
2023/02/26 04:17:03;;;;;;;16.93;4.10;;;;;;;;;;10489219;28;20274;-70
2023/02/26 04:22:03;;;;;;;12.45;4.25;;;;;;;;;;10501277;28;20585;-76
2023/02/26 04:27:04;;;;;;;17.90;4.03;;;;;;;;;;10488934;28;20020;-75
2023/02/26 04:32:04;;;;;;;16.73;3.28;;;;;;;;;;10484935;28;20020;-79
2023/02/26 04:37:05;;;;;;;15.17;4.33;;;;;;;;;;10500167;28;20032;-72
2023/02/26 04:42:05;;;;;;;12.68;3.58;;;;;;;;;;10483534;28;20498;-79
2023/02/26 04:47:05;;;;;;;9.02;2.42;;;;;;;;;;10481616;28;20418;-72
2023/02/26 04:52:05;;;;;;;26.67;3.58;;;;;;;;;;10482081;28;20040;-74
2023/02/26 04:57:06;;;;;;;20.92;4.18;;;;;;;;;;10482154;28;20024;-77
2023/02/26 05:02:06;;;;;;;14.85;3.45;;;;;;;;;;10499917;28;20620;-79
2023/02/26 05:07:07;;;;;;;13.07;4.35;;;;;;;;;;10481082;28;20074;-73
2023/02/26 05:12:07;;;;;;;16.80;4.10;;;;;;;;;;10465655;28;20566;-73
2023/02/26 05:17:07;;;;;;;10.38;3.17;;;;;;;;;;10491242;28;20039;-74
2023/02/26 05:22:08;;;;;;;12.68;3.28;;;;;;;;;;10469112;28;20487;-79
2023/02/26 05:27:09;;;;;;;20.85;3.70;;;;;;;;;;10479790;28;20436;-79
2023/02/26 05:32:09;;;;;;;19.08;3.10;;;;;;;;;;10477010;28;20351;-78
2023/02/26 05:37:11;;;;;;;11.63;2.97;;;;;;;;;;10475158;28;20491;-81
2023/02/26 05:42:12;;;;;;;14.77;3.95;;;;;;;;;;10476462;28;20475;-73
2023/02/26 05:47:12;;;;;;;17.05;4.13;;;;;;;;;;10476292;28;20049;-74
2023/02/26 05:52:15;;;;;;;13.55;3.85;;;;;;;;;;10490017;28;20109;-81
2023/02/26 05:57:16;;;;;;;21.35;3.80;;;;;;;;;;10465016;28;20029;-80
2023/02/26 06:02:16;;;;;;;16.23;5.75;;;;;;;;;;10490778;28;20032;-78
2023/02/26 06:07:16;;;;;;;21.83;3.70;;;;;;;;;;10458506;28;20029;-78
2023/02/26 06:12:16;;;;;;;14.88;4.38;;;;;;;;;;10471048;28;20178;-77
2023/02/26 06:17:17;;;;;;;21.85;3.08;;;;;;;;;;10484355;28;20031;-79
2023/02/26 06:22:17;;;;;;;21.80;4.03;;;;;;;;;;10477362;28;20028;-70
2023/02/26 06:27:18;;;;;;;20.65;3.95;;;;;;;;;;10477510;28;20105;-75
2023/02/26 06:32:18;;;;;;;16.83;4.40;;;;;;;;;;10466066;28;20017;-74
2023/02/26 06:37:18;;;;;;;21.45;3.47;;;;;;;;;;10474655;28;20025;-76
2023/02/26 06:42:18;;;;;;;24.42;3.53;;;;;;;;;;10490800;28;20029;-73
2023/02/26 06:47:19;;;;;;;28.63;3.47;;;;;;;;;;10490283;28;20063;-74
2023/02/26 06:52:19;;;;;;;23.00;3.42;;;;;;;;;;10476098;28;20510;-75
2023/02/26 06:57:19;;;;;;;25.73;4.32;;;;;;;;;;10484120;28;20461;-76
2023/02/26 07:02:20;;;;;;;17.57;3.23;;;;;;;;;;10485269;28;20035;-76
2023/02/26 07:07:21;;;;;;;25.05;3.15;;;;;;;;;;10485097;28;20028;-75
2023/02/26 07:12:21;;;;;;;16.85;3.65;;;;;;;;;;10475020;28;20044;-74
2023/02/26 07:17:21;;;;;;;34.80;4.57;;;;;;;;;;10494905;28;20574;-80
2023/02/26 07:22:23;;;;;;;16.88;3.65;;;;;;;;;;10481697;28;20032;-81
2023/02/26 07:27:23;;;;;;;20.95;3.40;;;;;;;;;;10470715;28;20462;-77
2023/02/26 07:32:24;;;;;;;18.00;2.70;;;;;;;;;;10479977;28;20028;-76
2023/02/26 07:37:27;;;;;;;15.82;2.33;;;;;;;;;;10500487;28;20070;-82
2023/02/26 07:42:28;;;;;;;14.70;3.45;;;;;;;;;;10491765;28;20024;-75
2023/02/26 07:47:29;;;;;;;15.77;2.92;;;;;;;;;;10461237;28;20510;-75
2023/02/26 07:52:29;;;;;;;17.65;3.88;;;;;;;;;;10475260;28;20013;-74
2023/02/26 07:57:29;;;;;;;24.27;3.17;;;;;;;;;;10466858;28;20021;-73
2023/02/26 08:02:30;;;;;;;16.48;2.95;;;;;;;;;;10463583;28;20110;-79
2023/02/26 08:07:30;;;;;;;23.35;3.33;;;;;;;;;;10476108;28;20024;-74
2023/02/26 08:12:31;;;;;;;22.23;3.03;;;;;;;;;;10470198;28;20110;-74
2023/02/26 08:17:33;;;;;;;24.08;4.03;;;;;;;;;;10496751;28;20016;-78
2023/02/26 08:22:33;;;;;;;16.55;3.38;;;;;;;;;;10496034;28;20021;-79
2023/02/26 08:27:36;;;;;;;18.47;3.27;;;;;;;;;;10483991;28;20028;-80
2023/02/26 08:32:38;;;;;;;8.93;2.40;;;;;;;;;;10490233;28;20024;-81
2023/02/26 08:37:41;;;;;;;21.92;3.25;;;;;;;;;;10499321;28;20031;-81
2023/02/26 08:42:42;;;;;;;19.92;2.95;;;;;;;;;;10476739;28;20115;-73
2023/02/26 08:47:44;;;;;;;19.37;3.17;;;;;;;;;;10477721;28;20055;-71
2023/02/26 08:52:53;;;;;;;17.48;3.00;;;;;;;;;;10477550;28;20081;-79
2023/02/26 08:57:53;;;;;;;21.52;3.85;;;;;;;;;;10471846;28;20426;-72
2023/02/26 09:02:54;;;;;;;17.60;3.08;;;;;;;;;;10508776;28;20033;-75
2023/02/26 09:07:55;;;;;;;16.85;3.30;;;;;;;;;;10516700;28;20581;-75
2023/02/26 09:12:55;;;;;;;19.97;4.10;;;;;;;;;;10490214;28;20081;-74
2023/02/26 09:17:56;;;;;;;16.30;3.10;;;;;;;;;;10485226;28;20025;-75
2023/02/26 09:22:58;;;;;;;10.38;3.25;;;;;;;;;;10492853;28;20478;-79
2023/02/26 09:28:00;;;;;;;18.98;2.67;;;;;;;;;;10483270;28;20374;-77
2023/02/26 09:33:00;;;;;;;24.57;3.60;;;;;;;;;;10488777;28;20031;-79
2023/02/26 09:38:00;;;;;;;24.87;4.03;;;;;;;;;;10503884;28;20020;-77
2023/02/26 09:43:07;;;;;;;21.70;3.58;;;;;;;;;;10470761;28;20020;-75
2023/02/26 09:48:11;;;;;;;22.83;3.25;;;;;;;;;;10485339;28;20043;-72
2023/02/26 09:53:20;;;;;;;16.65;3.53;;;;;;;;;;10484624;28;20028;-74
2023/02/26 09:58:40;;;;;;;18.30;4.28;;;;;;;;;;10486099;28;20020;-73
2023/02/26 10:03:58;;;;;;;19.25;3.45;;;;;;;;;;10487104;28;20029;-76
2023/02/26 10:09:08;;;;;;;12.02;2.78;;;;;;;;;;10498608;28;20090;-78
2023/02/26 10:14:29;;;;;;;17.10;3.25;;;;;;;;;;10483659;28;20027;-73
2023/02/26 10:19:32;;;;;;;20.63;3.80;;;;;;;;;;10485546;28;20024;-76
2023/02/26 10:24:41;;;;;;;20.48;3.78;;;;;;;;;;10486789;28;20421;-79
2023/02/26 10:29:51;;;;;;;14.88;3.17;;;;;;;;;;10485974;28;20027;-79
2023/02/26 10:34:51;;;;;;;17.95;3.13;;;;;;;;;;10485879;28;20034;-73
2023/02/26 10:39:57;;;;;;;12.15;2.25;;;;;;;;;;10485947;28;20020;-77
2023/02/26 10:45:06;;;;;;;8.82;2.47;;;;;;;;;;10494233;28;20075;-79
2023/02/26 10:50:12;;;;;;;14.10;2.70;;;;;;;;;;10484822;28;20039;-78
2023/02/26 10:55:29;;;;;;;13.77;2.85;;;;;;;;;;10502255;28;20033;-79
2023/02/26 11:00:34;;;;;;;10.05;2.97;;;;;;;;;;10486817;28;20367;-77
2023/02/26 11:05:34;;;;;;;17.13;3.75;;;;;;;;;;10485397;28;20088;-79
2023/02/26 11:10:51;;;;;;;12.20;2.60;;;;;;;;;;10490722;28;20061;-78
2023/02/26 11:15:54;;;;;;;25.30;3.10;;;;;;;;;;10475295;28;20024;-74
2023/02/26 11:20:56;;;;;;;17.85;3.13;;;;;;;;;;10487337;28;20099;-74
2023/02/26 11:26:13;;;;;;;12.63;3.17;;;;;;;;;;10494509;28;20020;-77
2023/02/26 11:31:18;;;;;;;15.98;3.58;;;;;;;;;;10497704;28;20017;-73
2023/02/26 11:36:19;;;;;;;22.17;5.93;;;;;;;;;;10481512;28;20444;-74
2023/02/26 11:41:21;;;;;;;14.07;2.72;;;;;;;;;;10465115;28;20024;-71
2023/02/26 11:46:23;;;;;;;19.13;3.45;;;;;;;;;;10464940;28;20204;-73
2023/02/26 11:51:24;;;;;;;13.15;3.45;;;;;;;;;;10481672;28;20028;-75
2023/02/26 11:56:34;;;;;;;12.43;3.00;;;;;;;;;;10514768;28;20035;-73
2023/02/26 12:01:35;;;;;;;24.92;3.70;;;;;;;;;;10481375;28;20101;-72
2023/02/26 12:06:35;;;;;;;21.63;3.22;;;;;;;;;;10485185;28;20058;-76
2023/02/26 12:11:43;;;;;;;28.05;5.95;;;;;;;;;;10492180;28;20491;-75
2023/02/26 12:16:43;;;;;;;;;;;;;;;;;;10481571;28;20020;-79
2023/02/26 12:21:43;;;;;;;18.77;4.40;;;;;;;;;;10481088;28;19962;-78
2023/02/26 12:26:49;;;;;;;21.17;3.40;;;;;;;;;;10481365;28;20016;-76
2023/02/26 12:31:50;;;;;;;23.35;3.78;;;;;;;;;;10481571;28;20016;-81
2023/02/26 12:36:59;;;;;;;16.08;4.20;;;;;;;;;;10480576;28;20021;-79
2023/02/26 12:42:07;;;;;;;20.48;4.10;;;;;;;;;;10481527;28;20051;-81
2023/02/26 12:47:14;;;;;;;21.50;4.43;;;;;;;;;;10481293;28;20159;-75
2023/02/26 12:52:18;;;;;;;20.60;5.03;;;;;;;;;;10480627;28;20111;-74
2023/02/26 12:57:19;;;;;;;15.15;4.30;;;;;;;;;;10481088;28;20501;-78
2023/02/26 13:02:29;;;;;;;16.73;4.78;;;;;;;;;;10483569;28;20115;-79
2023/02/26 13:07:32;;;;;;;22.40;4.10;;;;;;;;;;10498962;28;20063;-78
2023/02/26 13:12:36;;;;;;;21.00;3.72;;;;;;;;;;10494710;28;20475;-79
2023/02/26 13:18:03;;;;;;;25.27;5.43;;;;;;;;;;10488118;28;20032;-74
2023/02/26 13:23:11;;;;;;;24.23;4.28;;;;;;;;;;10471430;28;20094;-79
2023/02/26 13:28:31;;;;;;;21.70;3.88;;;;;;;;;;10476770;28;20034;-80
2023/02/26 13:33:33;;;;;;;29.27;4.65;;;;;;;;;;10488003;28;20020;-78
2023/02/26 13:38:46;;;;;;;21.08;4.25;;;;;;;;;;10487669;28;20020;-79
2023/02/26 13:43:54;;;;;;;13.90;4.22;;;;;;;;;;10487361;28;20043;-81
2023/02/26 13:49:01;;;;;;;28.38;3.80;;;;;;;;;;10488424;28;20033;-77
2023/02/26 13:54:03;;;;;;;21.08;4.05;;;;;;;;;;10486930;28;20017;-78
2023/02/26 13:59:22;;;;;;;18.25;4.18;;;;;;;;;;10485754;28;20576;-72
2023/02/26 14:04:25;;;;;;;27.73;6.05;;;;;;;;;;10488313;28;20028;-75
2023/02/26 14:09:29;;;;;;;31.80;4.93;;;;;;;;;;10495564;28;20086;-72
2023/02/26 14:14:34;;;;;;;25.38;4.95;;;;;;;;;;10492525;28;20021;-74
2023/02/26 14:19:38;;;;;;;27.92;6.10;;;;;;;;;;10486670;28;20499;-73
2023/02/26 14:24:39;;;;;;;34.42;7.85;;;;;;;;;;10484656;28;20111;-81
2023/02/26 14:29:43;;;;;;;28.63;5.25;;;;;;;;;;10485321;28;20488;-77
2023/02/26 14:34:49;;;;;;;35.70;4.85;;;;;;;;;;10497574;28;20110;-75
2023/02/26 14:40:10;;;;;;;40.50;6.40;;;;;;;;;;10485398;28;20119;-73
2023/02/26 14:45:16;;;;;;;29.30;6.75;;;;;;;;;;10490616;28;20494;-72
2023/02/26 14:50:18;;;;;;;52.60;6.03;;;;;;;;;;10497038;28;20461;-76
2023/02/26 14:55:37;;;;;;;36.60;7.53;;;;;;;;;;10496040;28;20024;-77
2023/02/26 15:00:43;;;;;;;41.00;7.53;;;;;;;;;;10498726;28;20191;-72
2023/02/26 15:05:44;;;;;;;33.25;8.73;;;;;;;;;;10485135;28;20491;-77
2023/02/26 15:10:56;;;;;;;36.73;6.97;;;;;;;;;;10487667;28;20025;-78
2023/02/26 15:16:10;;;;;;;32.35;6.50;;;;;;;;;;10483178;28;20353;-78
2023/02/26 15:21:13;;;;;;;36.50;10.88;;;;;;;;;;10465996;28;20028;-77
2023/02/26 15:26:27;;;;;;;35.38;6.60;;;;;;;;;;10481449;28;20028;-77
2023/02/26 15:31:46;;;;;;;47.05;7.43;;;;;;;;;;10467294;28;20032;-73
2023/02/26 15:36:49;;;;;;;38.47;8.32;;;;;;;;;;10482491;28;20035;-81
2023/02/26 15:41:51;;;;;;;32.72;6.68;;;;;;;;;;10467230;28;20024;-73
2023/02/26 15:46:54;;;;;;;42.13;8.18;;;;;;;;;;10480987;28;20123;-76
2023/02/26 15:51:55;;;;;;;29.38;6.13;;;;;;;;;;10480756;28;20438;-76
2023/02/26 15:56:55;;;;;;;30.08;7.50;;;;;;;;;;10479494;28;20040;-76
2023/02/26 16:01:56;;;;;;;40.58;7.35;;;;;;;;;;10491927;28;20035;-83
2023/02/26 16:06:57;;;;;;;28.73;6.53;;;;;;;;;;10486203;28;20474;-76
2023/02/26 16:11:59;;;;;;;23.17;6.45;;;;;;;;;;10478517;28;20123;-81
2023/02/26 16:17:00;;;;;;;31.98;9.10;;;;;;;;;;10485977;28;20049;-80
2023/02/26 16:22:03;;;;;;;27.88;6.40;;;;;;;;;;10489797;28;20150;-78
2023/02/26 16:27:07;;;;;;;26.65;7.13;;;;;;;;;;10480279;28;20868;-75
2023/02/26 16:32:10;;;;;;;34.42;7.45;;;;;;;;;;10483872;28;20402;-76
2023/02/26 16:37:18;;;;;;;28.70;6.13;;;;;;;;;;10478562;28;20420;-75
2023/02/26 16:42:20;;;;;;;32.97;6.25;;;;;;;;;;10481297;28;20085;-74
2023/02/26 16:47:21;;;;;;;37.30;8.20;;;;;;;;;;10479388;28;20129;-75
2023/02/26 16:52:25;;;;;;;44.83;7.85;;;;;;;;;;10487611;28;20060;-78
2023/02/26 16:57:33;;;;;;;29.52;7.53;;;;;;;;;;10477136;28;20457;-75
2023/02/26 17:02:34;;;;;;;36.03;10.00;;;;;;;;;;10480495;28;20029;-79
2023/02/26 17:07:35;;;;;;;33.50;7.57;;;;;;;;;;10479520;28;20115;-74
2023/02/26 17:12:42;;;;;;;27.70;7.30;;;;;;;;;;10478321;28;20085;-78
2023/02/26 17:17:43;;;;;;;32.38;7.18;;;;;;;;;;10477012;28;20024;-76
2023/02/26 17:22:43;;;;;;;40.88;9.02;;;;;;;;;;10485561;28;20035;-74
2023/02/26 17:27:44;;;;;;;53.67;9.23;;;;;;;;;;10482767;28;20078;-78
2023/02/26 17:32:45;;;;;;;37.38;7.93;;;;;;;;;;10486679;28;20037;-74
2023/02/26 17:37:49;;;;;;;46.72;9.70;;;;;;;;;;10477935;28;20155;-75
2023/02/26 17:42:50;;;;;;;28.50;8.98;;;;;;;;;;10483954;28;20143;-77
2023/02/26 17:47:51;;;;;;;43.65;9.15;;;;;;;;;;10482344;28;20073;-73
2023/02/26 17:52:51;;;;;;;33.83;6.83;;;;;;;;;;10478907;28;20178;-73
2023/02/26 17:57:51;;;;;;;24.70;8.32;;;;;;;;;;10484154;28;20051;-73
2023/02/26 18:02:52;;;;;;;29.33;6.68;;;;;;;;;;10475683;28;20035;-73
2023/02/26 18:07:52;;;;;;;38.63;11.27;;;;;;;;;;10492420;28;20469;-74
2023/02/26 18:12:53;;;;;;;38.58;9.25;;;;;;;;;;10479281;28;20028;-74
2023/02/26 18:17:53;;;;;;;41.58;9.15;;;;;;;;;;10478372;28;20040;-74
2023/02/26 18:22:53;;;;;;;32.77;9.30;;;;;;;;;;10481232;28;20043;-75
2023/02/26 18:28:04;;;;;;;38.17;9.65;;;;;;;;;;10479478;28;20063;-79
2023/02/26 18:33:08;;;;;;;36.17;8.60;;;;;;;;;;10476325;28;20738;-83
2023/02/26 18:38:11;;;;;;;33.85;8.00;;;;;;;;;;10480534;28;20028;-82
2023/02/26 18:43:11;;;;;;;35.42;9.80;;;;;;;;;;10475160;28;20021;-72
2023/02/26 18:48:14;;;;;;;26.95;9.02;;;;;;;;;;10477983;28;20594;-78
2023/02/26 18:53:16;;;;;;;36.15;8.27;;;;;;;;;;10483116;28;20032;-77
2023/02/26 18:58:32;;;;;;;30.60;8.35;;;;;;;;;;10477877;28;20050;-81
2023/02/26 19:03:32;;;;;;;36.17;9.52;;;;;;;;;;10481202;28;20039;-71
2023/02/26 19:08:33;;;;;;;34.17;10.23;;;;;;;;;;10492562;28;20033;-75
2023/02/26 19:13:37;;;;;;;41.72;10.57;;;;;;;;;;10481208;28;20021;-79
2023/02/26 19:18:38;;;;;;;29.55;9.18;;;;;;;;;;10485268;28;20028;-77
2023/02/26 19:23:39;;;;;;;32.53;8.95;;;;;;;;;;10496811;28;20095;-75
2023/02/26 19:28:39;;;;;;;47.37;10.30;;;;;;;;;;10486045;28;20139;-72
2023/02/26 19:33:39;;;;;;;37.88;9.90;;;;;;;;;;10478786;28;20111;-76
2023/02/26 19:38:40;;;;;;;28.60;8.60;;;;;;;;;;10479409;28;20036;-74
2023/02/26 19:43:40;;;;;;;31.75;8.73;;;;;;;;;;10484549;28;20122;-79
2023/02/26 19:48:41;;;;;;;41.58;9.73;;;;;;;;;;10480381;28;20158;-77
2023/02/26 19:53:42;;;;;;;46.78;10.68;;;;;;;;;;10489079;28;20039;-77
2023/02/26 19:58:42;;;;;;;39.95;10.52;;;;;;;;;;10483658;28;20021;-74
2023/02/26 20:03:43;;;;;;;36.58;10.10;;;;;;;;;;10486098;28;20079;-74
2023/02/26 20:08:45;;;;;;;46.00;13.07;;;;;;;;;;10492235;28;20035;-76
2023/02/26 20:13:48;;;;;;;28.90;10.70;;;;;;;;;;10492448;28;20089;-78
2023/02/26 20:18:48;;;;;;;43.25;10.73;;;;;;;;;;10478856;28;20031;-78
2023/02/26 20:23:49;;;;;;;39.03;11.67;;;;;;;;;;10405606;22;20050;-79
2023/02/26 20:28:49;;;;;;;42.70;10.67;;;;;;;;;;10327561;28;20514;-74
2023/02/26 20:33:49;;;;;;;34.42;11.35;;;;;;;;;;10351406;28;20998;-76
2023/02/26 20:38:50;;;;;;;26.90;10.53;;;;;;;;;;10338406;28;20029;-73
2023/02/26 20:43:50;;;;;;;38.72;11.63;;;;;;;;;;10378276;28;20276;-79
2023/02/26 20:48:50;;;;;;;37.80;10.15;;;;;;;;;;10372957;28;20025;-75
2023/02/26 20:53:51;;;;;;;34.67;11.00;;;;;;;;;;10347866;28;20079;-74
2023/02/26 20:58:54;;;;;;;22.85;9.75;;;;;;;;;;10351437;28;20022;-79
2023/02/26 21:03:54;;;;;;;28.52;11.85;;;;;;;;;;10368306;28;20025;-74
2023/02/26 21:08:55;;;;;;;45.60;12.00;;;;;;;;;;10366174;28;20029;-75
2023/02/26 21:13:56;;;;;;;33.83;11.67;;;;;;;;;;10339115;28;20583;-77
2023/02/26 21:18:59;;;;;;;49.72;13.88;;;;;;;;;;10351205;28;20117;-74
2023/02/26 21:23:59;;;;;;;38.90;13.80;;;;;;;;;;10360328;28;20080;-75
2023/02/26 21:28:59;;;;;;;36.92;11.15;;;;;;;;;;10365064;28;20435;-82
2023/02/26 21:34:00;;;;;;;44.78;13.65;;;;;;;;;;10364723;28;20022;-76
2023/02/26 21:39:00;;;;;;;57.35;14.48;;;;;;;;;;10381272;28;20030;-77
2023/02/26 21:44:00;;;;;;;58.10;14.10;;;;;;;;;;10324933;28;20461;-77
2023/02/26 21:49:01;;;;;;;46.33;13.48;;;;;;;;;;10380076;28;20502;-76
2023/02/26 21:54:02;;;;;;;38.93;13.57;;;;;;;;;;10351170;28;20018;-72
2023/02/26 21:59:02;;;;;;;36.15;13.60;;;;;;;;;;10341035;28;20091;-78
2023/02/26 22:04:02;;;;;;;46.47;13.07;;;;;;;;;;10364528;28;20353;-76
2023/02/26 22:09:04;;;;;;;45.13;15.20;;;;;;;;;;10384687;28;20124;-71
2023/02/26 22:14:04;;;;;;;46.72;13.60;;;;;;;;;;10366720;28;20025;-77
2023/02/26 22:19:04;;;;;;;40.03;13.45;;;;;;;;;;10362222;28;20029;-76
2023/02/26 22:24:05;;;;;;;40.47;16.65;;;;;;;;;;10364316;28;20475;-78
2023/02/26 22:29:05;;;;;;;42.83;12.77;;;;;;;;;;10382846;28;20030;-75
2023/02/26 22:34:05;;;;;;;29.33;13.25;;;;;;;;;;10375256;28;20048;-68
2023/02/26 22:39:06;;;;;;;38.53;15.33;;;;;;;;;;10333016;28;20507;-77
2023/02/26 22:44:06;;;;;;;28.20;12.13;;;;;;;;;;10359316;28;20010;-78
2023/02/26 22:49:06;;;;;;;36.03;12.80;;;;;;;;;;10426888;23;20840;-76
2023/02/26 22:54:10;;;;;;;39.28;13.43;;;;;;;;;;10365280;28;20030;-76
2023/02/26 22:59:11;;;;;;;43.20;14.60;;;;;;;;;;10387046;28;20029;-78
2023/02/26 23:04:12;;;;;;;52.95;15.32;;;;;;;;;;10401140;28;20045;-81
2023/02/26 23:09:12;;;;;;;37.60;11.67;;;;;;;;;;10381464;28;20056;-78
2023/02/26 23:14:13;;;;;;;48.60;12.27;;;;;;;;;;10383666;28;20025;-75
2023/02/26 23:19:13;;;;;;;24.60;11.13;;;;;;;;;;10378917;28;20034;-77
2023/02/26 23:24:13;;;;;;;34.00;10.90;;;;;;;;;;10378733;28;20106;-73
2023/02/26 23:29:14;;;;;;;31.98;10.15;;;;;;;;;;10366850;28;20481;-79
2023/02/26 23:34:14;;;;;;;32.63;10.52;;;;;;;;;;10361979;28;20018;-81
2023/02/26 23:39:15;;;;;;;36.90;10.82;;;;;;;;;;10362486;28;20057;-75
2023/02/26 23:44:15;;;;;;;33.53;10.73;;;;;;;;;;10359604;28;20457;-73
2023/02/26 23:49:15;;;;;;;34.15;12.82;;;;;;;;;;10359511;28;20073;-74
2023/02/26 23:54:15;;;;;;;29.58;10.10;;;;;;;;;;10360170;28;20013;-76
2023/02/26 23:59:17;;;;;;;29.60;10.73;;;;;;;;;;10359627;28;20259;-75
